Time;durP1;ratioP1;P1;durP2;ratioP2;P2;SDS_P1;SDS_P2;PMS_P1;PMS_P2;Temp;Humidity;BMP_temperature;BMP_pressure;BME280_temperature;BME280_humidity;BME280_pressure;Samples;Min_cycle;Max_cycle;Signal;HPM_P1;HPM_P2
2021/11/16 00:01:26;;;;;;;7.45;5.43;;;18.00;99.90;;;;;;5093092;28;20035;-67
2021/11/16 00:03:56;;;;;;;7.78;5.03;;;18.00;99.90;;;;;;5095385;28;20075;-66
2021/11/16 00:06:23;;;;;;;7.78;5.20;;;18.00;99.90;;;;;;5094852;28;20395;-67
2021/11/16 00:08:49;;;;;;;7.50;5.00;;;18.00;99.90;;;;;;5095677;28;20107;-67
2021/11/16 00:11:16;;;;;;;6.50;4.75;;;18.00;99.90;;;;;;5095535;28;20108;-67
2021/11/16 00:13:42;;;;;;;5.95;4.47;;;18.00;99.90;;;;;;5093911;28;20036;-67
2021/11/16 00:16:07;;;;;;;7.18;5.10;;;18.00;99.90;;;;;;5095186;28;20021;-66
2021/11/16 00:18:33;;;;;;;8.02;5.15;;;18.00;99.90;;;;;;5095234;28;20034;-67
2021/11/16 00:21:00;;;;;;;7.22;4.90;;;17.90;99.90;;;;;;5093484;28;20432;-67
2021/11/16 00:23:34;;;;;;;6.82;4.47;;;18.00;99.90;;;;;;5093212;28;20049;-67
2021/11/16 00:26:01;;;;;;;;;;;17.90;99.90;;;;;;5095144;28;20028;-67
2021/11/16 00:28:27;;;;;;;6.65;4.75;;;17.90;99.90;;;;;;5094859;28;20343;-67
2021/11/16 00:30:55;;;;;;;6.82;4.70;;;17.90;99.90;;;;;;5094745;28;20476;-67
2021/11/16 00:33:23;;;;;;;6.30;4.80;;;17.90;99.90;;;;;;5093241;28;20384;-67
2021/11/16 00:35:50;;;;;;;6.63;4.63;;;17.90;99.90;;;;;;5094895;28;20020;-67
2021/11/16 00:38:18;;;;;;;6.13;4.63;;;17.90;99.90;;;;;;5095113;28;20085;-67
2021/11/16 00:40:44;;;;;;;6.85;4.70;;;17.90;99.90;;;;;;5094319;28;20555;-66
2021/11/16 00:43:10;;;;;;;10.65;4.95;;;17.90;99.90;;;;;;5094207;28;20127;-67
2021/11/16 00:45:40;;;;;;;5.88;4.70;;;17.90;99.90;;;;;;5093638;28;20388;-65
2021/11/16 00:48:06;;;;;;;6.15;4.57;;;17.90;99.90;;;;;;5094490;28;20020;-66
2021/11/16 00:50:34;;;;;;;7.47;5.10;;;17.80;99.90;;;;;;5094065;28;20027;-68
2021/11/16 00:52:59;;;;;;;6.22;4.63;;;17.90;99.90;;;;;;5094326;28;20032;-67
2021/11/16 00:55:25;;;;;;;6.18;4.70;;;17.90;99.90;;;;;;5094014;28;20020;-68
2021/11/16 00:57:51;;;;;;;6.65;4.95;;;17.80;99.90;;;;;;5094309;28;20032;-68
2021/11/16 01:00:17;;;;;;;7.30;4.68;;;17.80;99.90;;;;;;5094426;28;20117;-68
2021/11/16 01:02:44;;;;;;;5.85;4.43;;;17.80;99.90;;;;;;5093699;28;20032;-67
2021/11/16 01:05:12;;;;;;;5.80;4.38;;;17.80;99.90;;;;;;5092898;28;20032;-67
2021/11/16 01:07:40;;;;;;;6.50;4.55;;;17.80;99.90;;;;;;5093951;28;20059;-67
2021/11/16 01:10:08;;;;;;;5.88;4.40;;;17.80;99.90;;;;;;5094199;28;20081;-67
2021/11/16 01:12:34;;;;;;;5.75;4.43;;;17.80;99.90;;;;;;5093374;28;20019;-67
2021/11/16 01:15:00;;;;;;;5.47;4.10;;;17.80;99.90;;;;;;5093676;28;20443;-67
2021/11/16 01:17:26;;;;;;;6.55;4.53;;;17.80;99.90;;;;;;5093346;28;20024;-67
2021/11/16 01:19:52;;;;;;;6.05;4.32;;;17.80;99.90;;;;;;5093974;28;20111;-64
2021/11/16 01:22:18;;;;;;;6.53;4.40;;;17.80;99.90;;;;;;5092243;28;20503;-67
2021/11/16 01:24:44;;;;;;;6.90;4.45;;;17.70;99.90;;;;;;5093148;28;20032;-67
2021/11/16 01:27:14;;;;;;;6.28;4.68;;;17.70;99.90;;;;;;5092331;28;20062;-67
2021/11/16 01:29:41;;;;;;;5.75;4.28;;;17.70;99.90;;;;;;5093687;28;20039;-67
2021/11/16 01:32:14;;;;;;;5.20;3.67;;;17.70;99.90;;;;;;5093752;28;20028;-67
2021/11/16 01:34:46;;;;;;;4.78;3.58;;;17.70;99.90;;;;;;5093321;28;20031;-67
2021/11/16 01:37:14;;;;;;;5.95;4.43;;;17.70;99.90;;;;;;5093467;28;20047;-64
2021/11/16 01:39:40;;;;;;;5.70;4.30;;;17.70;99.90;;;;;;5093410;28;20039;-67
2021/11/16 01:42:06;;;;;;;6.28;4.30;;;17.70;99.90;;;;;;5091979;28;20415;-67
2021/11/16 01:44:32;;;;;;;5.10;3.97;;;17.80;99.90;;;;;;5092695;28;20471;-67
2021/11/16 01:46:58;;;;;;;7.78;4.28;;;17.80;99.90;;;;;;5093067;28;20016;-64
2021/11/16 01:49:23;;;;;;;6.45;4.18;;;17.80;99.90;;;;;;5093268;28;20498;-67
2021/11/16 01:51:49;;;;;;;6.20;4.13;;;17.80;99.90;;;;;;5091788;28;20024;-67
2021/11/16 01:54:15;;;;;;;5.30;4.05;;;17.80;99.90;;;;;;5093318;28;20028;-66
2021/11/16 01:56:44;;;;;;;5.38;3.88;;;17.80;99.90;;;;;;5092644;28;20078;-66
2021/11/16 01:59:12;;;;;;;5.63;3.85;;;17.80;99.90;;;;;;5092902;28;20498;-67
2021/11/16 02:01:39;;;;;;;6.13;4.20;;;17.80;99.90;;;;;;5092652;28;20357;-66
2021/11/16 02:04:06;;;;;;;5.85;4.35;;;17.80;99.90;;;;;;5092953;28;20068;-66
2021/11/16 02:06:35;;;;;;;5.05;4.07;;;17.80;99.90;;;;;;5092402;28;20040;-66
2021/11/16 02:09:04;;;;;;;6.57;4.65;;;17.80;99.90;;;;;;5093146;28;20067;-66
2021/11/16 02:11:30;;;;;;;4.40;3.58;;;17.70;99.90;;;;;;5092252;28;20500;-66
2021/11/16 02:13:56;;;;;;;5.03;3.92;;;17.80;99.90;;;;;;5092450;28;20028;-67
2021/11/16 02:16:23;;;;;;;5.38;3.95;;;17.80;99.90;;;;;;5092679;28;20024;-67
2021/11/16 02:18:49;;;;;;;4.63;3.72;;;17.80;99.90;;;;;;5093256;28;20063;-67
2021/11/16 02:21:15;;;;;;;6.28;4.40;;;17.80;99.90;;;;;;5092216;28;20111;-67
2021/11/16 02:23:42;;;;;;;5.25;4.20;;;17.80;99.90;;;;;;5090958;28;20446;-66
2021/11/16 02:26:09;;;;;;;5.53;4.30;;;17.80;99.90;;;;;;5077322;28;20028;-66
2021/11/16 02:28:35;;;;;;;5.68;4.15;;;17.80;99.90;;;;;;5091081;28;20387;-67
2021/11/16 02:31:02;;;;;;;4.20;3.40;;;17.80;99.90;;;;;;5091935;28;20407;-67
2021/11/16 02:33:28;;;;;;;5.00;3.88;;;17.80;99.90;;;;;;5091747;28;20027;-68
2021/11/16 02:35:54;;;;;;;4.90;3.78;;;17.80;99.90;;;;;;5092510;28;20113;-67
2021/11/16 02:38:21;;;;;;;4.88;3.58;;;17.80;99.90;;;;;;5091011;28;20024;-67
2021/11/16 02:40:47;;;;;;;5.50;3.85;;;17.80;99.90;;;;;;5092490;28;20322;-68
2021/11/16 02:43:13;;;;;;;5.68;4.03;;;17.80;99.90;;;;;;5091676;28;20039;-67
2021/11/16 02:45:39;;;;;;;4.90;3.72;;;17.80;99.90;;;;;;5087475;28;20032;-67
2021/11/16 02:48:12;;;;;;;4.93;3.75;;;17.80;99.90;;;;;;5091753;28;20376;-67
2021/11/16 02:50:44;;;;;;;5.07;3.70;;;17.80;99.90;;;;;;5073569;28;20130;-67
2021/11/16 02:53:10;;;;;;;5.57;3.65;;;17.80;99.90;;;;;;5072804;28;20025;-66
2021/11/16 02:55:36;;;;;;;5.18;3.65;;;17.80;99.90;;;;;;5091638;28;20119;-66
2021/11/16 02:58:03;;;;;;;5.13;3.60;;;17.90;99.90;;;;;;5091914;28;20089;-66
2021/11/16 03:00:29;;;;;;;4.82;3.78;;;17.90;99.90;;;;;;5091454;28;20024;-66
2021/11/16 03:02:55;;;;;;;4.03;3.03;;;17.80;99.90;;;;;;5091998;28;20032;-66
2021/11/16 03:05:21;;;;;;;4.55;3.70;;;17.90;99.90;;;;;;5091491;28;20090;-67
2021/11/16 03:07:56;;;;;;;4.68;3.50;;;17.90;99.90;;;;;;5091728;28;20028;-67
2021/11/16 03:10:25;;;;;;;4.75;3.63;;;17.90;99.90;;;;;;5091706;28;20483;-67
2021/11/16 03:12:51;;;;;;;5.65;3.88;;;17.90;99.90;;;;;;5091489;28;20020;-66
2021/11/16 03:15:17;;;;;;;4.32;3.42;;;17.80;99.90;;;;;;5091734;28;20027;-67
2021/11/16 03:17:43;;;;;;;5.18;3.92;;;17.90;99.90;;;;;;5091217;28;20027;-67
2021/11/16 03:20:11;;;;;;;4.28;3.40;;;17.90;99.90;;;;;;5091712;28;20031;-67
2021/11/16 03:22:47;;;;;;;4.88;3.40;;;17.90;99.90;;;;;;5091294;28;20028;-67
2021/11/16 03:25:13;;;;;;;4.88;3.70;;;17.90;99.90;;;;;;5091644;28;20032;-66
2021/11/16 03:27:40;;;;;;;4.50;3.47;;;17.90;99.90;;;;;;5090563;28;20823;-66
2021/11/16 03:30:07;;;;;;;4.25;3.53;;;17.90;99.90;;;;;;5089969;28;20055;-66
2021/11/16 03:32:36;;;;;;;4.55;3.58;;;17.90;99.90;;;;;;5091169;28;20035;-67
2021/11/16 03:35:05;;;;;;;3.80;3.22;;;17.90;99.90;;;;;;5091447;28;20044;-67
2021/11/16 03:37:39;;;;;;;4.47;3.40;;;17.90;99.90;;;;;;5091290;28;20115;-67
2021/11/16 03:40:06;;;;;;;7.60;3.63;;;17.90;99.90;;;;;;5091727;28;20025;-67
2021/11/16 03:42:34;;;;;;;5.40;3.90;;;17.90;99.90;;;;;;5072714;28;20487;-67
2021/11/16 03:45:00;;;;;;;4.35;3.28;;;18.00;99.90;;;;;;5091037;28;20029;-67
2021/11/16 03:47:26;;;;;;;4.63;3.72;;;17.90;99.90;;;;;;5090976;28;20413;-67
2021/11/16 03:49:51;;;;;;;5.22;3.63;;;18.00;99.90;;;;;;5091011;28;20039;-66
2021/11/16 03:52:21;;;;;;;4.32;3.35;;;18.00;99.90;;;;;;5086405;28;20107;-67
2021/11/16 03:54:47;;;;;;;3.83;3.25;;;18.00;99.90;;;;;;5090542;28;20043;-67
2021/11/16 03:57:13;;;;;;;4.43;3.40;;;18.00;99.90;;;;;;5091279;28;20028;-67
2021/11/16 03:59:39;;;;;;;4.28;3.55;;;18.00;99.90;;;;;;5091011;28;20762;-67
2021/11/16 04:02:04;;;;;;;5.25;3.70;;;18.00;99.90;;;;;;5091055;28;20101;-67
2021/11/16 04:04:31;;;;;;;3.85;3.20;;;18.00;99.90;;;;;;5090357;28;20036;-67
2021/11/16 04:06:57;;;;;;;4.45;3.58;;;18.00;99.90;;;;;;5091128;28;20032;-66
2021/11/16 04:09:23;;;;;;;4.45;3.40;;;18.00;99.90;;;;;;5090456;28;20030;-66
2021/11/16 04:11:48;;;;;;;4.20;3.00;;;18.00;99.90;;;;;;5090887;28;20430;-67
2021/11/16 04:14:15;;;;;;;4.47;3.53;;;18.00;99.90;;;;;;5090964;28;20027;-67
2021/11/16 04:16:40;;;;;;;4.75;3.50;;;18.00;99.90;;;;;;5090971;28;20081;-67
2021/11/16 04:19:06;;;;;;;3.88;3.17;;;18.00;99.90;;;;;;5091103;28;20099;-67
2021/11/16 04:21:32;;;;;;;5.18;3.17;;;18.00;99.90;;;;;;5090687;28;20464;-67
2021/11/16 04:23:58;;;;;;;4.57;3.83;;;18.10;99.90;;;;;;5091163;28;20036;-67
2021/11/16 04:26:24;;;;;;;4.45;3.20;;;18.10;99.90;;;;;;5090620;28;20078;-67
2021/11/16 04:28:49;;;;;;;5.15;3.30;;;18.10;99.90;;;;;;5091036;28;20024;-67
2021/11/16 04:31:15;;;;;;;3.67;2.92;;;18.10;99.90;;;;;;5091350;28;20051;-68
2021/11/16 04:33:43;;;;;;;4.60;3.33;;;18.10;99.90;;;;;;5090494;28;20029;-67
2021/11/16 04:36:11;;;;;;;4.63;3.00;;;18.10;99.90;;;;;;5090942;28;20525;-68
2021/11/16 04:38:36;;;;;;;4.40;3.00;;;18.10;99.90;;;;;;5090829;28;20012;-68
2021/11/16 04:41:03;;;;;;;4.38;3.53;;;18.10;99.90;;;;;;5090905;28;20533;-68
2021/11/16 04:43:30;;;;;;;3.92;3.17;;;18.10;99.90;;;;;;5090041;28;20387;-67
2021/11/16 04:46:03;;;;;;;3.83;3.08;;;18.20;99.90;;;;;;5090509;28;20031;-67
2021/11/16 05:04:33;;;;;;;4.25;3.33;;;18.20;99.90;;;;;;5093910;28;20101;-66
2021/11/16 05:07:00;;;;;;;4.63;3.25;;;18.20;99.90;;;;;;5093967;28;20036;-66
2021/11/16 05:09:26;;;;;;;3.67;2.90;;;18.20;99.90;;;;;;5094041;28;20051;-66
2021/11/16 05:11:51;;;;;;;4.45;3.42;;;18.20;99.90;;;;;;5093731;28;20063;-67
2021/11/16 05:14:17;;;;;;;4.25;2.92;;;18.20;99.90;;;;;;5094175;28;20468;-67
2021/11/16 05:16:43;;;;;;;4.00;3.20;;;18.20;99.90;;;;;;5092100;28;20024;-67
2021/11/16 05:19:08;;;;;;;4.35;3.22;;;18.20;99.90;;;;;;5093731;28;20035;-67
2021/11/16 05:21:34;;;;;;;3.72;2.72;;;18.20;99.90;;;;;;5093555;28;20357;-67
2021/11/16 05:24:01;;;;;;;4.15;3.10;;;18.20;99.90;;;;;;5093925;28;20055;-66
2021/11/16 05:26:28;;;;;;;5.13;3.67;;;18.20;99.90;;;;;;5093541;28;20028;-66
2021/11/16 05:28:54;;;;;;;4.95;3.30;;;18.20;99.90;;;;;;5093932;28;20024;-67
2021/11/16 05:31:21;;;;;;;4.07;3.22;;;18.20;99.90;;;;;;5093629;28;20024;-66
2021/11/16 05:33:48;;;;;;;3.90;3.08;;;18.20;99.90;;;;;;5094128;28;20012;-66
2021/11/16 05:36:16;;;;;;;3.75;2.97;;;18.30;99.90;;;;;;5093703;28;20031;-67
2021/11/16 05:38:43;;;;;;;4.05;3.20;;;18.30;99.90;;;;;;5093222;28;20028;-67
2021/11/16 05:41:09;;;;;;;5.57;3.22;;;18.30;99.90;;;;;;5093287;28;20074;-66
2021/11/16 05:43:36;;;;;;;4.30;3.08;;;18.30;99.90;;;;;;5093332;28;20119;-67
2021/11/16 05:46:03;;;;;;;4.15;3.13;;;18.30;99.90;;;;;;5093201;28;20077;-65
2021/11/16 05:48:40;;;;;;;4.57;3.33;;;18.30;99.90;;;;;;5093262;28;20099;-67
2021/11/16 05:51:06;;;;;;;4.05;3.03;;;18.30;99.90;;;;;;5092731;28;20036;-67
2021/11/16 05:53:33;;;;;;;4.30;3.08;;;18.30;99.90;;;;;;5092888;28;20047;-67
2021/11/16 05:55:59;;;;;;;3.72;2.88;;;18.30;99.90;;;;;;5093182;28;20043;-67
2021/11/16 05:58:25;;;;;;;3.67;2.90;;;18.30;99.90;;;;;;5090962;28;20104;-67
2021/11/16 06:00:51;;;;;;;4.20;2.97;;;18.30;99.90;;;;;;5091625;28;20392;-67
2021/11/16 06:03:18;;;;;;;4.38;2.80;;;18.40;99.90;;;;;;5092652;28;20031;-68
2021/11/16 06:05:44;;;;;;;4.28;2.95;;;18.40;99.90;;;;;;5092963;28;20103;-69
2021/11/16 06:08:25;;;;;;;4.90;2.92;;;18.40;99.90;;;;;;5093036;28;20032;-67
2021/11/16 06:10:53;;;;;;;4.00;2.70;;;18.40;99.90;;;;;;5092218;28;20028;-68
2021/11/16 06:13:19;;;;;;;3.58;2.80;;;18.40;99.90;;;;;;5092391;28;20020;-67
2021/11/16 06:15:45;;;;;;;4.63;2.90;;;18.50;99.90;;;;;;5093040;28;20032;-67
2021/11/16 06:18:12;;;;;;;4.55;2.53;;;18.50;99.90;;;;;;5092757;28;20020;-68
2021/11/16 06:20:39;;;;;;;9.55;3.47;;;18.50;99.90;;;;;;5092675;28;20115;-67
2021/11/16 06:23:05;;;;;;;6.05;3.00;;;18.50;99.90;;;;;;5092471;28;20036;-67
2021/11/16 06:25:31;;;;;;;7.35;3.17;;;18.50;99.90;;;;;;5092223;28;20024;-70
2021/11/16 06:27:57;;;;;;;7.35;3.30;;;18.50;99.90;;;;;;5106291;28;20088;-72
2021/11/16 06:30:23;;;;;;;10.98;4.00;;;18.60;99.90;;;;;;5111583;28;20130;-72
2021/11/16 06:32:49;;;;;;;12.85;4.50;;;18.50;99.90;;;;;;5113285;28;20027;-66
2021/11/16 06:35:16;;;;;;;10.25;4.00;;;18.40;99.90;;;;;;5113327;28;20027;-64
2021/11/16 06:37:43;;;;;;;6.05;3.67;;;18.40;99.90;;;;;;5097939;28;20376;-66
2021/11/16 06:40:09;;;;;;;6.47;4.07;;;18.40;99.90;;;;;;5092429;28;20032;-65
2021/11/16 06:42:36;;;;;;;10.10;5.70;;;18.50;99.90;;;;;;5092233;28;20034;-66
2021/11/16 06:45:03;;;;;;;11.77;6.57;;;18.40;99.90;;;;;;5092382;28;20125;-65
2021/11/16 06:47:28;;;;;;;12.82;6.95;;;18.40;99.90;;;;;;5091990;28;20020;-64
2021/11/16 06:49:54;;;;;;;12.10;6.20;;;18.40;99.90;;;;;;5092921;28;20042;-64
2021/11/16 06:52:20;;;;;;;9.38;5.85;;;18.40;99.90;;;;;;5091511;28;20028;-64
2021/11/16 06:54:46;;;;;;;11.95;5.63;;;18.40;99.90;;;;;;5091888;28;20036;-65
2021/11/16 06:57:12;;;;;;;10.85;5.50;;;18.40;99.90;;;;;;5092066;28;20035;-65
2021/11/16 06:59:39;;;;;;;7.40;4.60;;;18.40;99.90;;;;;;5091675;28;20043;-65
2021/11/16 07:02:05;;;;;;;5.97;4.45;;;18.40;99.90;;;;;;5092146;28;20020;-64
2021/11/16 07:04:41;;;;;;;5.85;4.18;;;18.40;99.90;;;;;;5091780;28;20063;-66
2021/11/16 07:07:08;;;;;;;6.95;4.60;;;18.40;99.90;;;;;;5091686;28;20036;-65
2021/11/16 07:09:39;;;;;;;8.27;4.63;;;18.40;99.90;;;;;;5091619;28;20104;-67
2021/11/16 07:12:17;;;;;;;8.23;4.50;;;18.40;99.90;;;;;;5092083;28;20016;-66
2021/11/16 07:14:44;;;;;;;6.75;4.45;;;18.50;99.90;;;;;;5091664;28;20020;-65
2021/11/16 07:17:13;;;;;;;7.07;5.10;;;18.50;99.90;;;;;;5091929;28;20027;-65
2021/11/16 07:19:39;;;;;;;8.60;4.78;;;18.50;99.90;;;;;;5091341;28;20202;-64
2021/11/16 07:22:12;;;;;;;6.50;4.50;;;18.40;99.90;;;;;;5091956;28;20089;-64
2021/11/16 07:24:53;;;;;;;8.02;4.45;;;18.40;99.90;;;;;;5090766;28;20601;-64
2021/11/16 07:27:21;;;;;;;7.72;4.50;;;18.40;99.90;;;;;;5091757;28;20546;-65
2021/11/16 07:29:54;;;;;;;7.60;4.35;;;18.40;99.90;;;;;;5091590;28;20054;-65
2021/11/16 07:32:23;;;;;;;6.88;4.05;;;18.30;99.90;;;;;;5091664;28;20028;-65
2021/11/16 07:34:51;;;;;;;6.00;4.20;;;18.30;99.90;;;;;;5091959;28;20028;-64
2021/11/16 07:37:26;;;;;;;5.80;4.25;;;18.30;99.90;;;;;;5092074;28;20096;-65
2021/11/16 07:39:55;;;;;;;6.20;4.25;;;18.30;99.90;;;;;;5091684;28;20031;-65
2021/11/16 07:42:24;;;;;;;6.90;4.55;;;18.30;99.90;;;;;;5091273;28;20016;-65
2021/11/16 07:45:11;;;;;;;8.88;4.70;;;18.30;99.90;;;;;;5091582;28;20093;-65
2021/11/16 07:47:41;;;;;;;6.18;4.10;;;18.30;99.90;;;;;;5091585;28;20461;-65
2021/11/16 07:50:09;;;;;;;8.60;4.55;;;18.30;99.90;;;;;;5091704;28;20027;-65
2021/11/16 07:52:35;;;;;;;7.28;4.28;;;18.30;99.90;;;;;;5091393;28;20104;-65
2021/11/16 07:55:01;;;;;;;7.50;4.43;;;18.30;99.90;;;;;;5091466;28;20032;-65
2021/11/16 07:57:27;;;;;;;5.82;4.38;;;18.30;99.90;;;;;;5091149;28;20016;-65
2021/11/16 07:59:55;;;;;;;8.68;4.85;;;18.20;99.90;;;;;;5091453;28;20498;-65
2021/11/16 08:02:30;;;;;;;6.82;4.32;;;18.20;99.90;;;;;;5091162;28;20021;-65
2021/11/16 08:05:08;;;;;;;5.75;3.88;;;18.20;99.90;;;;;;5091432;28;20036;-65
2021/11/16 08:07:57;;;;;;;6.03;4.18;;;18.20;99.90;;;;;;5089729;28;20025;-65
2021/11/16 08:10:28;;;;;;;6.90;3.92;;;18.20;99.90;;;;;;5091244;28;20024;-65
2021/11/16 08:13:04;;;;;;;6.03;4.20;;;18.20;99.90;;;;;;5091440;28;20103;-65
2021/11/16 08:15:29;;;;;;;7.72;4.18;;;18.20;99.90;;;;;;5091086;28;20095;-65
2021/11/16 08:18:01;;;;;;;6.05;3.83;;;18.20;99.90;;;;;;5091205;28;20107;-65
2021/11/16 08:20:27;;;;;;;6.35;4.10;;;18.20;99.90;;;;;;5091111;28;20476;-65
2021/11/16 08:23:01;;;;;;;5.35;3.70;;;18.10;99.90;;;;;;5093937;28;20094;-65
2021/11/16 08:25:27;;;;;;;6.38;4.00;;;18.10;99.90;;;;;;5094911;28;20434;-65
2021/11/16 08:27:53;;;;;;;7.25;4.10;;;18.10;99.90;;;;;;5095168;28;20020;-65
2021/11/16 08:30:21;;;;;;;7.60;3.90;;;18.10;99.90;;;;;;5094966;28;20020;-65
2021/11/16 08:32:51;;;;;;;6.60;4.40;;;18.10;99.90;;;;;;5095477;28;20103;-65
2021/11/16 08:35:20;;;;;;;5.82;4.28;;;18.10;99.90;;;;;;5095332;28;20522;-65
2021/11/16 08:37:47;;;;;;;5.25;3.85;;;18.10;99.90;;;;;;5095360;28;20028;-65
2021/11/16 08:40:25;;;;;;;6.10;4.13;;;18.10;99.90;;;;;;5094902;28;20021;-65
2021/11/16 08:42:57;;;;;;;5.43;3.85;;;18.10;99.90;;;;;;5094777;28;20036;-66
2021/11/16 08:45:33;;;;;;;5.95;4.05;;;18.10;99.90;;;;;;5094713;28;20492;-66
2021/11/16 08:48:10;;;;;;;7.32;4.50;;;18.00;99.90;;;;;;5094700;28;20544;-66
2021/11/16 08:50:42;;;;;;;5.95;4.07;;;18.00;99.90;;;;;;5094375;28;20020;-66
2021/11/16 08:53:13;;;;;;;5.93;4.03;;;18.00;99.90;;;;;;5094758;28;20031;-66
2021/11/16 08:55:42;;;;;;;6.25;4.28;;;18.00;99.90;;;;;;5094230;28;20433;-66
2021/11/16 08:58:13;;;;;;;5.55;3.88;;;18.00;99.90;;;;;;5094369;28;20046;-66
2021/11/16 09:00:43;;;;;;;6.20;4.18;;;18.00;99.90;;;;;;5094241;28;20036;-65
2021/11/16 09:03:16;;;;;;;5.57;3.90;;;18.00;99.90;;;;;;5094531;28;20036;-65
2021/11/16 09:05:49;;;;;;;7.57;4.53;;;17.90;99.90;;;;;;5094283;28;20024;-65
2021/11/16 09:08:18;;;;;;;6.40;4.50;;;17.90;99.90;;;;;;5094862;28;20107;-65
2021/11/16 09:10:45;;;;;;;8.23;4.55;;;17.90;99.90;;;;;;5094566;28;20039;-65
2021/11/16 09:13:13;;;;;;;5.13;3.67;;;17.90;99.90;;;;;;5094514;28;20027;-65
2021/11/16 09:15:46;;;;;;;5.70;4.25;;;17.90;99.90;;;;;;5094072;28;20129;-65
2021/11/16 09:18:11;;;;;;;7.88;4.20;;;17.90;99.90;;;;;;5094093;28;20479;-66
2021/11/16 09:20:38;;;;;;;6.28;4.15;;;17.90;99.90;;;;;;5093763;28;20024;-65
2021/11/16 09:23:06;;;;;;;7.25;4.32;;;17.90;99.90;;;;;;5094125;28;20024;-66
2021/11/16 09:25:35;;;;;;;6.82;4.45;;;17.90;99.90;;;;;;5093973;28;20028;-65
2021/11/16 09:28:22;;;;;;;5.82;4.13;;;17.90;99.90;;;;;;5094567;28;20103;-65
2021/11/16 09:30:48;;;;;;;5.85;3.90;;;17.80;99.90;;;;;;5094508;28;20386;-65
2021/11/16 09:33:19;;;;;;;6.30;4.15;;;17.80;99.90;;;;;;5094318;28;20024;-65
2021/11/16 09:35:48;;;;;;;6.38;4.65;;;17.80;99.90;;;;;;5094135;28;20031;-65
2021/11/16 09:38:57;;;;;;;7.18;4.75;;;17.80;99.90;;;;;;5094184;28;20491;-65
2021/11/16 09:41:45;;;;;;;7.45;4.88;;;17.80;99.90;;;;;;5092338;28;20032;-65
2021/11/16 09:44:25;;;;;;;6.22;4.30;;;17.80;99.90;;;;;;5093669;28;20032;-66
2021/11/16 09:46:57;;;;;;;6.13;4.38;;;17.80;99.90;;;;;;5093817;28;20020;-66
2021/11/16 09:49:53;;;;;;;6.00;4.65;;;17.80;99.90;;;;;;5093578;28;20032;-66
2021/11/16 09:52:32;;;;;;;8.38;5.10;;;17.80;99.90;;;;;;5092528;28;20115;-66
2021/11/16 09:55:16;;;;;;;8.30;5.20;;;17.70;99.90;;;;;;5093604;28;20031;-66
2021/11/16 09:57:42;;;;;;;7.75;4.97;;;17.70;99.90;;;;;;5093230;28;20056;-66
2021/11/16 10:00:10;;;;;;;6.18;4.65;;;17.70;99.90;;;;;;5093475;28;20064;-66
2021/11/16 10:02:48;;;;;;;7.60;4.90;;;17.70;99.90;;;;;;5093080;28;20055;-66
2021/11/16 10:05:21;;;;;;;7.85;5.13;;;17.70;99.90;;;;;;5093690;28;20035;-66
2021/11/16 10:07:56;;;;;;;7.97;5.13;;;17.70;99.90;;;;;;5093475;28;20414;-66
2021/11/16 10:10:24;;;;;;;6.90;4.50;;;17.70;99.90;;;;;;5093006;28;20032;-65
2021/11/16 10:12:54;;;;;;;7.97;4.95;;;17.70;99.90;;;;;;5093246;28;20024;-65
2021/11/16 10:15:24;;;;;;;7.68;5.53;;;17.70;99.90;;;;;;5092898;28;20019;-65
2021/11/16 10:17:51;;;;;;;7.50;4.72;;;17.70;99.90;;;;;;5093198;28;20023;-65
2021/11/16 10:20:38;;;;;;;8.77;5.70;;;17.70;99.90;;;;;;5093226;28;20430;-65
2021/11/16 10:23:08;;;;;;;7.32;5.00;;;17.70;99.90;;;;;;5092739;28;20028;-65
2021/11/16 10:25:37;;;;;;;9.90;5.10;;;17.70;99.90;;;;;;5092716;28;20052;-65
2021/11/16 10:28:09;;;;;;;7.72;5.20;;;17.60;99.90;;;;;;5092861;28;20100;-65
2021/11/16 10:30:35;;;;;;;8.77;5.97;;;17.60;99.90;;;;;;5092615;28;20030;-65
2021/11/16 10:33:20;;;;;;;8.20;5.47;;;17.60;99.90;;;;;;5092762;28;20021;-65
2021/11/16 10:35:54;;;;;;;7.82;5.50;;;17.60;99.90;;;;;;5093186;28;20031;-65
2021/11/16 10:38:28;;;;;;;8.30;5.65;;;17.60;99.90;;;;;;5092574;28;20464;-65
2021/11/16 10:40:56;;;;;;;7.93;5.43;;;17.60;99.90;;;;;;5092694;28;20024;-65
2021/11/16 10:43:31;;;;;;;7.15;5.50;;;17.60;99.90;;;;;;5092085;28;20514;-65
2021/11/16 10:46:01;;;;;;;8.63;5.68;;;17.60;99.90;;;;;;5091947;28;20031;-65
2021/11/16 10:48:27;;;;;;;7.30;5.72;;;17.60;99.90;;;;;;5092446;28;20039;-65
2021/11/16 10:50:53;;;;;;;8.25;5.30;;;17.60;99.90;;;;;;5091163;28;20031;-65
2021/11/16 10:53:22;;;;;;;8.25;5.55;;;17.60;99.90;;;;;;5092392;28;20024;-65
2021/11/16 10:55:57;;;;;;;7.93;5.38;;;17.60;99.90;;;;;;5092836;28;20016;-65
2021/11/16 10:58:41;;;;;;;7.45;5.00;;;17.60;99.90;;;;;;5091940;28;20059;-65
2021/11/16 11:01:36;;;;;;;;;;;17.60;99.90;;;;;;5092761;28;20069;-65
2021/11/16 11:04:01;;;;;;;7.72;5.43;;;17.60;99.80;;;;;;5091692;28;19912;-65
2021/11/16 11:06:34;;;;;;;7.82;5.78;;;17.50;99.80;;;;;;5091921;28;20035;-66
2021/11/16 11:09:05;;;;;;;7.47;5.63;;;17.50;99.80;;;;;;5092107;28;20035;-65
2021/11/16 11:11:32;;;;;;;9.20;6.10;;;17.50;99.80;;;;;;5092085;28;20024;-65
2021/11/16 11:14:05;;;;;;;11.57;5.78;;;17.50;99.80;;;;;;5092090;28;20063;-66
2021/11/16 11:16:37;;;;;;;7.50;5.28;;;17.50;99.70;;;;;;5090713;28;20418;-65
2021/11/16 11:19:07;;;;;;;8.38;5.85;;;17.50;99.80;;;;;;5092065;28;20107;-66
2021/11/16 11:21:38;;;;;;;7.82;5.47;;;17.50;99.70;;;;;;5091923;28;20016;-65
2021/11/16 11:24:20;;;;;;;8.07;5.53;;;17.50;99.70;;;;;;5091665;28;20036;-65
2021/11/16 11:27:08;;;;;;;8.23;5.70;;;17.50;99.90;;;;;;5092368;28;20031;-66
2021/11/16 11:29:53;;;;;;;7.68;4.97;;;17.50;99.90;;;;;;5091605;28;20031;-65
2021/11/16 11:32:31;;;;;;;8.75;5.90;;;17.50;99.70;;;;;;5091750;28;20020;-66
2021/11/16 11:35:07;;;;;;;8.23;6.03;;;17.40;99.70;;;;;;5091774;28;20028;-66
2021/11/16 11:37:50;;;;;;;7.32;5.28;;;17.50;99.90;;;;;;5091520;28;20024;-66
2021/11/16 11:40:21;;;;;;;7.35;5.57;;;17.40;99.70;;;;;;5091936;28;20024;-66
2021/11/16 11:42:49;;;;;;;7.60;5.05;;;17.50;99.60;;;;;;5091896;28;20024;-65
2021/11/16 11:45:21;;;;;;;8.88;5.53;;;17.40;99.60;;;;;;5091913;28;20028;-65
2021/11/16 11:48:00;;;;;;;7.80;5.22;;;17.50;99.60;;;;;;5091926;28;20487;-65
2021/11/16 11:50:43;;;;;;;7.72;5.65;;;17.50;99.60;;;;;;5091346;28;20023;-65
2021/11/16 11:53:12;;;;;;;7.15;4.97;;;17.40;99.60;;;;;;5091571;28;20028;-66
2021/11/16 11:55:45;;;;;;;7.32;5.18;;;17.40;99.60;;;;;;5091323;28;20081;-65
2021/11/16 11:58:11;;;;;;;7.65;5.22;;;17.40;99.60;;;;;;5093857;28;20035;-65
2021/11/16 12:00:39;;;;;;;7.43;5.40;;;17.40;99.60;;;;;;5095533;28;20035;-65
2021/11/16 12:03:07;;;;;;;7.82;5.72;;;17.40;99.60;;;;;;5095517;28;20028;-65
2021/11/16 12:05:35;;;;;;;8.05;5.68;;;17.40;99.60;;;;;;5095418;28;20476;-65
2021/11/16 12:08:01;;;;;;;6.72;4.93;;;17.40;99.60;;;;;;5095667;28;20020;-65
2021/11/16 12:10:27;;;;;;;6.90;5.07;;;17.40;99.60;;;;;;5095369;28;20028;-65
2021/11/16 12:12:55;;;;;;;8.05;5.85;;;17.40;99.60;;;;;;5095453;28;20028;-65
2021/11/16 12:15:39;;;;;;;8.65;6.03;;;17.40;99.60;;;;;;5095303;28;20031;-65
2021/11/16 12:18:05;;;;;;;7.95;5.45;;;17.40;99.60;;;;;;5095483;28;20016;-65
2021/11/16 12:20:55;;;;;;;7.53;5.03;;;17.40;99.60;;;;;;5095093;28;20032;-65
2021/11/16 12:23:44;;;;;;;8.00;5.40;;;17.40;99.60;;;;;;5094905;28;20111;-65
2021/11/16 12:26:11;;;;;;;7.20;5.53;;;17.40;99.60;;;;;;5095186;28;20571;-65
2021/11/16 12:28:38;;;;;;;7.43;5.05;;;17.40;99.50;;;;;;5095016;28;20476;-65
2021/11/16 12:31:05;;;;;;;7.32;5.22;;;17.40;99.50;;;;;;5095140;28;20035;-65
2021/11/16 12:33:42;;;;;;;8.77;5.47;;;17.40;99.60;;;;;;5094664;28;20549;-64
2021/11/16 12:36:10;;;;;;;7.47;5.55;;;17.40;99.50;;;;;;5094971;28;20035;-65
2021/11/16 12:38:49;;;;;;;7.97;5.53;;;17.40;99.50;;;;;;5094788;28;20056;-65
2021/11/16 12:41:27;;;;;;;7.18;5.10;;;17.40;99.50;;;;;;5095258;28;20028;-65
2021/11/16 12:43:54;;;;;;;7.85;5.60;;;17.40;99.50;;;;;;5094908;28;20098;-65
2021/11/16 12:46:22;;;;;;;7.72;5.45;;;17.30;99.50;;;;;;5094743;28;20035;-65
2021/11/16 12:48:55;;;;;;;7.22;5.07;;;17.40;99.50;;;;;;5093907;28;20035;-65
2021/11/16 12:51:24;;;;;;;8.10;5.47;;;17.40;99.50;;;;;;5094452;28;20020;-65
2021/11/16 12:53:59;;;;;;;8.20;5.45;;;17.30;99.50;;;;;;5094800;28;20111;-65
2021/11/16 12:56:52;;;;;;;8.27;5.28;;;17.40;99.50;;;;;;5094478;28;20024;-65
2021/11/16 12:59:21;;;;;;;7.72;5.50;;;17.40;99.50;;;;;;5094664;28;20036;-64
2021/11/16 13:01:51;;;;;;;7.13;5.03;;;17.40;99.50;;;;;;5094853;28;20032;-66
2021/11/16 13:04:37;;;;;;;7.75;5.25;;;17.30;99.50;;;;;;5094602;28;20123;-65
2021/11/16 13:07:21;;;;;;;8.23;5.07;;;17.30;99.40;;;;;;5094047;28;20028;-65
2021/11/16 13:09:53;;;;;;;8.07;5.30;;;17.30;99.40;;;;;;5094589;28;20028;-65
2021/11/16 13:12:37;;;;;;;7.05;5.40;;;17.30;99.70;;;;;;5094031;28;20036;-65
2021/11/16 13:15:21;;;;;;;7.70;5.30;;;17.30;99.40;;;;;;5094479;28;20031;-65
2021/11/16 13:17:51;;;;;;;;;;;17.30;99.70;;;;;;5095016;28;20020;-66